sensor_id;sensor_type;location;lat;lon;timestamp;pressure;altitude;pressure_sealevel;temperature;humidity
6599;BME280;3335;43.198;27.918;2023-02-07T00:00:46;147134.66;;;-0.68;100.00
6599;BME280;3335;43.198;27.918;2023-02-07T00:03:13;147102.47;;;-0.81;100.00
6599;BME280;3335;43.198;27.918;2023-02-07T00:05:40;147135.88;;;-0.68;100.00
6599;BME280;3335;43.198;27.918;2023-02-07T00:08:07;147133.41;;;-0.69;100.00
6599;BME280;3335;43.198;27.918;2023-02-07T00:10:35;147076.47;;;-0.92;100.00
6599;BME280;3335;43.198;27.918;2023-02-07T00:13:02;147139.56;;;-0.66;100.00
6599;BME280;3335;43.198;27.918;2023-02-07T00:15:29;147138.38;;;-0.67;100.00
6599;BME280;3335;43.198;27.918;2023-02-07T00:17:57;147129.69;;;-0.70;100.00
6599;BME280;3335;43.198;27.918;2023-02-07T00:20:24;147119.78;;;-0.74;100.00
6599;BME280;3335;43.198;27.918;2023-02-07T00:22:51;147142.06;;;-0.65;100.00
6599;BME280;3335;43.198;27.918;2023-02-07T00:25:20;147134.66;;;-0.68;100.00
6599;BME280;3335;43.198;27.918;2023-02-07T00:27:47;147164.34;;;-0.56;100.00
6599;BME280;3335;43.198;27.918;2023-02-07T00:30:14;147169.31;;;-0.54;100.00
6599;BME280;3335;43.198;27.918;2023-02-07T00:32:41;147102.47;;;-0.81;100.00
6599;BME280;3335;43.198;27.918;2023-02-07T00:35:10;147144.53;;;-0.64;100.00
6599;BME280;3335;43.198;27.918;2023-02-07T00:37:37;147159.41;;;-0.58;100.00
6599;BME280;3335;43.198;27.918;2023-02-07T00:40:04;147151.94;;;-0.61;100.00
6599;BME280;3335;43.198;27.918;2023-02-07T00:42:31;147151.94;;;-0.61;100.00
6599;BME280;3335;43.198;27.918;2023-02-07T00:44:58;147161.91;;;-0.57;100.00
6599;BME280;3335;43.198;27.918;2023-02-07T00:47:25;147151.94;;;-0.61;100.00
6599;BME280;3335;43.198;27.918;2023-02-07T00:49:52;147156.91;;;-0.59;100.00
6599;BME280;3335;43.198;27.918;2023-02-07T00:52:20;147159.41;;;-0.58;100.00
6599;BME280;3335;43.198;27.918;2023-02-07T00:54:47;147161.91;;;-0.57;100.00
6599;BME280;3335;43.198;27.918;2023-02-07T00:57:14;147145.78;;;-0.64;100.00
6599;BME280;3335;43.198;27.918;2023-02-07T00:59:41;147122.25;;;-0.73;100.00
6599;BME280;3335;43.198;27.918;2023-02-07T01:02:08;147127.22;;;-0.71;100.00
6599;BME280;3335;43.198;27.918;2023-02-07T01:04:35;147122.25;;;-0.73;100.00
6599;BME280;3335;43.198;27.918;2023-02-07T01:07:02;147103.72;;;-0.81;100.00
6599;BME280;3335;43.198;27.918;2023-02-07T01:09:31;147121.03;;;-0.74;100.00
6599;BME280;3335;43.198;27.918;2023-02-07T01:11:57;147122.25;;;-0.73;100.00
6599;BME280;3335;43.198;27.918;2023-02-07T01:14:24;147128.44;;;-0.71;100.00
6599;BME280;3335;43.198;27.918;2023-02-07T01:16:51;147119.78;;;-0.74;100.00
6599;BME280;3335;43.198;27.918;2023-02-07T01:19:18;147119.78;;;-0.74;100.00
6599;BME280;3335;43.198;27.918;2023-02-07T01:21:45;147098.75;;;-0.83;100.00
6599;BME280;3335;43.198;27.918;2023-02-07T01:24:12;147087.59;;;-0.88;100.00
6599;BME280;3335;43.198;27.918;2023-02-07T01:26:40;147078.97;;;-0.91;100.00
6599;BME280;3335;43.198;27.918;2023-02-07T01:29:09;147090.09;;;-0.86;100.00
6599;BME280;3335;43.198;27.918;2023-02-07T01:31:40;147072.75;;;-0.94;100.00
6599;BME280;3335;43.198;27.918;2023-02-07T01:34:10;147097.50;;;-0.83;100.00
6599;BME280;3335;43.198;27.918;2023-02-07T01:36:38;147095.00;;;-0.84;100.00
6599;BME280;3335;43.198;27.918;2023-02-07T01:39:05;147095.00;;;-0.84;100.00
6599;BME280;3335;43.198;27.918;2023-02-07T01:41:32;147028.19;;;-1.12;100.00
6599;BME280;3335;43.198;27.918;2023-02-07T01:44:02;147097.50;;;-0.83;100.00
6599;BME280;3335;43.198;27.918;2023-02-07T01:46:30;147090.09;;;-0.86;100.00
6599;BME280;3335;43.198;27.918;2023-02-07T01:49:01;147080.19;;;-0.91;100.00
6599;BME280;3335;43.198;27.918;2023-02-07T01:51:30;147082.63;;;-0.90;100.00
6599;BME280;3335;43.198;27.918;2023-02-07T01:54:01;147102.47;;;-0.81;100.00
6599;BME280;3335;43.198;27.918;2023-02-07T01:56:29;147095.00;;;-0.84;100.00
6599;BME280;3335;43.198;27.918;2023-02-07T01:58:57;147075.22;;;-0.93;100.00
6599;BME280;3335;43.198;27.918;2023-02-07T02:01:25;147071.50;;;-0.94;100.00
6599;BME280;3335;43.198;27.918;2023-02-07T02:03:54;147057.88;;;-1.00;100.00
6599;BME280;3335;43.198;27.918;2023-02-07T02:06:25;147072.75;;;-0.94;100.00
6599;BME280;3335;43.198;27.918;2023-02-07T02:08:55;147072.75;;;-0.94;100.00
6599;BME280;3335;43.198;27.918;2023-02-07T02:11:56;147081.41;;;-0.90;100.00
6599;BME280;3335;43.198;27.918;2023-02-07T02:14:41;146869.88;;;-1.77;100.00
6599;BME280;3335;43.198;27.918;2023-02-07T02:17:19;147049.22;;;-1.03;100.00
6599;BME280;3335;43.198;27.918;2023-02-07T02:20:36;147014.56;;;-1.17;100.00
6599;BME280;3335;43.198;27.918;2023-02-07T02:23:19;147047.97;;;-1.04;100.00
6599;BME280;3335;43.198;27.918;2023-02-07T02:29:24;147008.41;;;-1.20;100.00
6599;BME280;3335;43.198;27.918;2023-02-07T02:35:07;146998.53;;;-1.24;100.00
6599;BME280;3335;43.198;27.918;2023-02-07T02:37:41;147008.41;;;-1.20;100.00
6599;BME280;3335;43.198;27.918;2023-02-07T02:40:15;146997.28;;;-1.24;100.00
6599;BME280;3335;43.198;27.918;2023-02-07T02:42:46;146979.94;;;-1.32;100.00
6599;BME280;3335;43.198;27.918;2023-02-07T02:45:17;146971.28;;;-1.35;100.00
6599;BME280;3335;43.198;27.918;2023-02-07T02:47:48;146971.28;;;-1.35;100.00
6599;BME280;3335;43.198;27.918;2023-02-07T02:50:21;146976.22;;;-1.33;100.00
6599;BME280;3335;43.198;27.918;2023-02-07T02:52:49;146965.06;;;-1.38;100.00
6599;BME280;3335;43.198;27.918;2023-02-07T02:55:17;146951.50;;;-1.43;100.00
6599;BME280;3335;43.198;27.918;2023-02-07T02:57:56;146944.06;;;-1.46;100.00
6599;BME280;3335;43.198;27.918;2023-02-07T03:00:47;146934.16;;;-1.50;100.00
6599;BME280;3335;43.198;27.918;2023-02-07T03:06:36;146919.31;;;-1.56;100.00
6599;BME280;3335;43.198;27.918;2023-02-07T03:09:16;146921.78;;;-1.55;100.00
6599;BME280;3335;43.198;27.918;2023-02-07T03:11:54;146931.69;;;-1.51;100.00
6599;BME280;3335;43.198;27.918;2023-02-07T03:14:29;146916.88;;;-1.57;100.00
6599;BME280;3335;43.198;27.918;2023-02-07T03:17:08;146902.00;;;-1.63;100.00
6599;BME280;3335;43.198;27.918;2023-02-07T03:19:42;146909.41;;;-1.60;100.00
6599;BME280;3335;43.198;27.918;2023-02-07T03:22:14;146906.94;;;-1.61;100.00
6599;BME280;3335;43.198;27.918;2023-02-07T03:24:45;146869.88;;;-1.77;100.00
6599;BME280;3335;43.198;27.918;2023-02-07T03:27:14;146915.63;;;-1.58;100.00
6599;BME280;3335;43.198;27.918;2023-02-07T03:29:45;146911.91;;;-1.59;100.00
6599;BME280;3335;43.198;27.918;2023-02-07T03:32:13;146894.59;;;-1.66;100.00
6599;BME280;3335;43.198;27.918;2023-02-07T03:34:45;146872.31;;;-1.76;100.00
6599;BME280;3335;43.198;27.918;2023-02-07T03:37:19;146863.66;;;-1.79;100.00
6599;BME280;3335;43.198;27.918;2023-02-07T03:39:49;146862.41;;;-1.80;100.00
6599;BME280;3335;43.198;27.918;2023-02-07T03:42:22;146861.16;;;-1.80;100.00
6599;BME280;3335;43.198;27.918;2023-02-07T03:44:53;146872.31;;;-1.76;100.00
6599;BME280;3335;43.198;27.918;2023-02-07T03:47:22;146877.25;;;-1.73;100.00
6599;BME280;3335;43.198;27.918;2023-02-07T03:49:48;146855.00;;;-1.83;100.00
6599;BME280;3335;43.198;27.918;2023-02-07T03:52:17;146852.53;;;-1.84;100.00
6599;BME280;3335;43.198;27.918;2023-02-07T03:54:44;146851.28;;;-1.84;100.00
6599;BME280;3335;43.198;27.918;2023-02-07T03:57:11;146827.78;;;-1.94;100.00
6599;BME280;3335;43.198;27.918;2023-02-07T03:59:38;146815.41;;;-1.99;100.00
6599;BME280;3335;43.198;27.918;2023-02-07T04:02:05;146837.69;;;-1.90;100.00
6599;BME280;3335;43.198;27.918;2023-02-07T04:04:32;146810.50;;;-2.01;100.00
6599;BME280;3335;43.198;27.918;2023-02-07T04:07:00;146822.88;;;-1.96;100.00
6599;BME280;3335;43.198;27.918;2023-02-07T04:09:28;146809.25;;;-2.01;100.00
6599;BME280;3335;43.198;27.918;2023-02-07T04:11:55;146791.94;;;-2.08;100.00
6599;BME280;3335;43.198;27.918;2023-02-07T04:14:22;146778.38;;;-2.14;100.00
6599;BME280;3335;43.198;27.918;2023-02-07T04:16:49;146775.88;;;-2.15;100.00
6599;BME280;3335;43.198;27.918;2023-02-07T04:19:16;146768.44;;;-2.18;100.00
6599;BME280;3335;43.198;27.918;2023-02-07T04:21:43;146761.03;;;-2.21;100.00
6599;BME280;3335;43.198;27.918;2023-02-07T04:24:11;146763.53;;;-2.20;100.00
6599;BME280;3335;43.198;27.918;2023-02-07T04:26:39;146764.75;;;-2.19;100.00
6599;BME280;3335;43.198;27.918;2023-02-07T04:29:06;146754.88;;;-2.24;100.00
6599;BME280;3335;43.198;27.918;2023-02-07T04:31:33;146749.91;;;-2.26;100.00
6599;BME280;3335;43.198;27.918;2023-02-07T04:34:02;146751.16;;;-2.25;100.00
6599;BME280;3335;43.198;27.918;2023-02-07T04:36:29;146731.38;;;-2.33;100.00
6599;BME280;3335;43.198;27.918;2023-02-07T04:38:55;146753.63;;;-2.24;100.00
6599;BME280;3335;43.198;27.918;2023-02-07T04:41:23;146753.63;;;-2.24;100.00
6599;BME280;3335;43.198;27.918;2023-02-07T04:43:51;146731.38;;;-2.33;100.00
6599;BME280;3335;43.198;27.918;2023-02-07T04:46:19;146743.75;;;-2.28;100.00
6599;BME280;3335;43.198;27.918;2023-02-07T04:48:46;146716.53;;;-2.39;100.00
6599;BME280;3335;43.198;27.918;2023-02-07T04:51:14;146716.53;;;-2.39;100.00
6599;BME280;3335;43.198;27.918;2023-02-07T04:53:41;146711.56;;;-2.41;100.00
6599;BME280;3335;43.198;27.918;2023-02-07T04:56:08;146711.56;;;-2.41;100.00
6599;BME280;3335;43.198;27.918;2023-02-07T04:58:34;146711.56;;;-2.41;100.00
6599;BME280;3335;43.198;27.918;2023-02-07T05:01:03;146716.53;;;-2.39;100.00
6599;BME280;3335;43.198;27.918;2023-02-07T05:03:30;146691.81;;;-2.49;100.00
6599;BME280;3335;43.198;27.918;2023-02-07T05:05:57;146676.97;;;-2.55;100.00
6599;BME280;3335;43.198;27.918;2023-02-07T05:08:24;146691.81;;;-2.49;100.00
6599;BME280;3335;43.198;27.918;2023-02-07T05:10:51;146679.44;;;-2.54;100.00
6599;BME280;3335;43.198;27.918;2023-02-07T05:13:19;146674.47;;;-2.56;100.00
6599;BME280;3335;43.198;27.918;2023-02-07T05:15:46;146681.94;;;-2.53;100.00
6599;BME280;3335;43.198;27.918;2023-02-07T05:18:14;146691.81;;;-2.49;100.00
6599;BME280;3335;43.198;27.918;2023-02-07T05:20:41;146686.84;;;-2.51;100.00
6599;BME280;3335;43.198;27.918;2023-02-07T05:23:08;146691.81;;;-2.49;100.00
6599;BME280;3335;43.198;27.918;2023-02-07T05:25:35;146681.94;;;-2.53;100.00
6599;BME280;3335;43.198;27.918;2023-02-07T05:28:03;146689.34;;;-2.50;100.00
6599;BME280;3335;43.198;27.918;2023-02-07T05:30:30;146684.41;;;-2.52;100.00
6599;BME280;3335;43.198;27.918;2023-02-07T05:32:56;146681.94;;;-2.53;100.00
6599;BME280;3335;43.198;27.918;2023-02-07T05:35:30;146689.34;;;-2.50;100.00
6599;BME280;3335;43.198;27.918;2023-02-07T05:37:57;146691.81;;;-2.49;100.00
6599;BME280;3335;43.198;27.918;2023-02-07T05:40:24;146691.81;;;-2.49;100.00
6599;BME280;3335;43.198;27.918;2023-02-07T05:42:52;146699.22;;;-2.46;100.00
6599;BME280;3335;43.198;27.918;2023-02-07T05:45:19;146704.19;;;-2.44;100.00
6599;BME280;3335;43.198;27.918;2023-02-07T05:47:46;146709.09;;;-2.42;100.00
6599;BME280;3335;43.198;27.918;2023-02-07T05:50:13;146710.34;;;-2.42;100.00
6599;BME280;3335;43.198;27.918;2023-02-07T05:52:41;146715.31;;;-2.40;100.00
6599;BME280;3335;43.198;27.918;2023-02-07T05:55:09;146699.22;;;-2.46;100.00
6599;BME280;3335;43.198;27.918;2023-02-07T05:57:37;146725.19;;;-2.36;100.00
6599;BME280;3335;43.198;27.918;2023-02-07T06:00:05;146726.41;;;-2.35;100.00
6599;BME280;3335;43.198;27.918;2023-02-07T06:02:32;146722.69;;;-2.37;100.00
6599;BME280;3335;43.198;27.918;2023-02-07T06:04:59;146731.38;;;-2.33;100.00
6599;BME280;3335;43.198;27.918;2023-02-07T06:07:26;146730.16;;;-2.34;100.00
6599;BME280;3335;43.198;27.918;2023-02-07T06:09:54;146741.25;;;-2.29;100.00
6599;BME280;3335;43.198;27.918;2023-02-07T06:12:21;146737.53;;;-2.31;100.00
6599;BME280;3335;43.198;27.918;2023-02-07T06:14:48;146748.66;;;-2.26;100.00
6599;BME280;3335;43.198;27.918;2023-02-07T06:17:15;146746.19;;;-2.27;100.00
6599;BME280;3335;43.198;27.918;2023-02-07T06:19:42;146761.03;;;-2.21;100.00
6599;BME280;3335;43.198;27.918;2023-02-07T06:22:09;146768.44;;;-2.18;100.00
6599;BME280;3335;43.198;27.918;2023-02-07T06:24:36;146766.00;;;-2.19;100.00
6599;BME280;3335;43.198;27.918;2023-02-07T06:27:04;146784.53;;;-2.11;100.00
6599;BME280;3335;43.198;27.918;2023-02-07T06:29:31;146763.53;;;-2.20;100.00
6599;BME280;3335;43.198;27.918;2023-02-07T06:31:58;146804.28;;;-2.03;100.00
6599;BME280;3335;43.198;27.918;2023-02-07T06:34:25;146812.97;;;-2.00;100.00
6599;BME280;3335;43.198;27.918;2023-02-07T06:36:52;146830.28;;;-1.93;100.00
6599;BME280;3335;43.198;27.918;2023-02-07T06:39:19;146811.75;;;-2.00;100.00
6599;BME280;3335;43.198;27.918;2023-02-07T06:41:46;146864.91;;;-1.79;100.00
6599;BME280;3335;43.198;27.918;2023-02-07T06:44:15;146879.75;;;-1.72;100.00
6599;BME280;3335;43.198;27.918;2023-02-07T06:46:42;146895.81;;;-1.66;100.00
6599;BME280;3335;43.198;27.918;2023-02-07T06:49:09;146906.94;;;-1.61;100.00
6599;BME280;3335;43.198;27.918;2023-02-07T06:51:36;146925.50;;;-1.54;100.00
6599;BME280;3335;43.198;27.918;2023-02-07T06:54:03;146931.69;;;-1.51;100.00
6599;BME280;3335;43.198;27.918;2023-02-07T06:56:34;146939.13;;;-1.48;100.00
6599;BME280;3335;43.198;27.918;2023-02-07T06:59:01;146936.66;;;-1.49;100.00
6599;BME280;3335;43.198;27.918;2023-02-07T07:01:31;146961.41;;;-1.39;100.00
6599;BME280;3335;43.198;27.918;2023-02-07T07:03:58;146983.66;;;-1.30;100.00
6599;BME280;3335;43.198;27.918;2023-02-07T07:06:25;146988.59;;;-1.28;100.00
6599;BME280;3335;43.198;27.918;2023-02-07T07:08:52;147004.69;;;-1.21;100.00
6599;BME280;3335;43.198;27.918;2023-02-07T07:11:19;146993.56;;;-1.26;100.00
6599;BME280;3335;43.198;27.918;2023-02-07T07:13:46;147034.38;;;-1.09;100.00
6599;BME280;3335;43.198;27.918;2023-02-07T07:16:13;147005.94;;;-1.21;100.00
6599;BME280;3335;43.198;27.918;2023-02-07T07:18:42;147052.97;;;-1.02;100.00
6599;BME280;3335;43.198;27.918;2023-02-07T07:21:09;147015.81;;;-1.17;100.00
6599;BME280;3335;43.198;27.918;2023-02-07T07:23:37;147067.81;;;-0.96;100.00
6599;BME280;3335;43.198;27.918;2023-02-07T07:26:04;147060.38;;;-0.99;100.00
6599;BME280;3335;43.198;27.918;2023-02-07T07:28:31;147087.59;;;-0.88;100.00
6599;BME280;3335;43.198;27.918;2023-02-07T07:31:02;147095.00;;;-0.84;100.00
6599;BME280;3335;43.198;27.918;2023-02-07T07:33:29;147050.47;;;-1.03;100.00
6599;BME280;3335;43.198;27.918;2023-02-07T07:35:58;147035.59;;;-1.09;100.00
6599;BME280;3335;43.198;27.918;2023-02-07T07:38:25;147065.34;;;-0.97;100.00
6599;BME280;3335;43.198;27.918;2023-02-07T07:40:52;147070.25;;;-0.95;100.00
6599;BME280;3335;43.198;27.918;2023-02-07T07:43:19;147067.81;;;-0.96;100.00
6599;BME280;3335;43.198;27.918;2023-02-07T07:45:51;147045.53;;;-1.05;100.00
6599;BME280;3335;43.198;27.918;2023-02-07T07:48:18;147100.00;;;-0.82;100.00
6599;BME280;3335;43.198;27.918;2023-02-07T07:50:45;147070.25;;;-0.95;100.00
6599;BME280;3335;43.198;27.918;2023-02-07T07:53:14;147109.88;;;-0.78;100.00
6599;BME280;3335;43.198;27.918;2023-02-07T07:55:41;147085.13;;;-0.89;100.00
6599;BME280;3335;43.198;27.918;2023-02-07T07:58:08;147132.16;;;-0.69;100.00
6599;BME280;3335;43.198;27.918;2023-02-07T08:00:35;147148.28;;;-0.63;100.00
6599;BME280;3335;43.198;27.918;2023-02-07T08:03:02;147144.53;;;-0.64;100.00
6599;BME280;3335;43.198;27.918;2023-02-07T08:05:29;147144.53;;;-0.64;100.00
6599;BME280;3335;43.198;27.918;2023-02-07T08:07:56;147154.44;;;-0.60;100.00
6599;BME280;3335;43.198;27.918;2023-02-07T08:10:24;147159.41;;;-0.58;100.00
6599;BME280;3335;43.198;27.918;2023-02-07T08:12:51;147174.22;;;-0.52;100.00
6599;BME280;3335;43.198;27.918;2023-02-07T08:15:18;147164.34;;;-0.56;100.00
6599;BME280;3335;43.198;27.918;2023-02-07T08:17:45;147159.41;;;-0.58;100.00
6599;BME280;3335;43.198;27.918;2023-02-07T08:20:12;147159.41;;;-0.58;100.00
6599;BME280;3335;43.198;27.918;2023-02-07T08:22:39;147142.06;;;-0.65;100.00
6599;BME280;3335;43.198;27.918;2023-02-07T08:25:07;147191.59;;;-0.45;100.00
6599;BME280;3335;43.198;27.918;2023-02-07T08:27:36;147202.72;;;-0.40;100.00
6599;BME280;3335;43.198;27.918;2023-02-07T08:30:05;147186.63;;;-0.47;100.00
6599;BME280;3335;43.198;27.918;2023-02-07T08:32:32;147226.25;;;-0.31;100.00
6599;BME280;3335;43.198;27.918;2023-02-07T08:34:59;147263.41;;;-0.16;100.00
6599;BME280;3335;43.198;27.918;2023-02-07T08:37:26;147300.59;;;-0.01;100.00
6599;BME280;3335;43.198;27.918;2023-02-07T08:39:53;147332.78;;;0.13;100.00
6599;BME280;3335;43.198;27.918;2023-02-07T08:42:21;147325.31;;;0.10;100.00
6599;BME280;3335;43.198;27.918;2023-02-07T08:44:50;147397.19;;;0.39;100.00
6599;BME280;3335;43.198;27.918;2023-02-07T08:47:17;147404.66;;;0.42;100.00
6599;BME280;3335;43.198;27.918;2023-02-07T08:49:44;147434.38;;;0.54;100.00
6599;BME280;3335;43.198;27.918;2023-02-07T08:52:11;147461.66;;;0.65;100.00
6599;BME280;3335;43.198;27.918;2023-02-07T08:54:38;147508.75;;;0.84;100.00
6599;BME280;3335;43.198;27.918;2023-02-07T08:57:05;147404.66;;;0.42;100.00
6599;BME280;3335;43.198;27.918;2023-02-07T08:59:32;147508.75;;;0.84;100.00
6599;BME280;3335;43.198;27.918;2023-02-07T09:02:00;147508.75;;;0.84;100.00
6599;BME280;3335;43.198;27.918;2023-02-07T09:04:27;147513.69;;;0.86;100.00
6599;BME280;3335;43.198;27.918;2023-02-07T09:06:54;147563.28;;;1.07;100.00
6599;BME280;3335;43.198;27.918;2023-02-07T09:09:21;147493.84;;;0.78;100.00
6599;BME280;3335;43.198;27.918;2023-02-07T09:11:49;147550.88;;;1.02;100.00
6599;BME280;3335;43.198;27.918;2023-02-07T09:14:16;147573.19;;;1.11;100.00
6599;BME280;3335;43.198;27.918;2023-02-07T09:16:43;147598.00;;;1.21;100.00
6599;BME280;3335;43.198;27.918;2023-02-07T09:19:11;147600.47;;;1.22;100.00
6599;BME280;3335;43.198;27.918;2023-02-07T09:21:38;147585.59;;;1.16;100.00
6599;BME280;3335;43.198;27.918;2023-02-07T09:24:05;147642.63;;;1.39;100.00
6599;BME280;3335;43.198;27.918;2023-02-07T09:26:32;147655.03;;;1.44;100.00
6599;BME280;3335;43.198;27.918;2023-02-07T09:29:00;147647.59;;;1.41;100.00
6599;BME280;3335;43.198;27.918;2023-02-07T09:31:27;147710.81;;;1.67;100.00
6599;BME280;3335;43.198;27.918;2023-02-07T09:33:54;147683.56;;;1.56;99.07
6599;BME280;3335;43.198;27.918;2023-02-07T09:36:23;147573.19;;;1.11;99.54
6599;BME280;3335;43.198;27.918;2023-02-07T09:38:51;147575.69;;;1.12;99.63
6599;BME280;3335;43.198;27.918;2023-02-07T09:41:23;147615.38;;;1.28;100.00
6599;BME280;3335;43.198;27.918;2023-02-07T09:43:58;147610.38;;;1.26;100.00
6599;BME280;3335;43.198;27.918;2023-02-07T09:46:30;147626.53;;;1.33;100.00
6599;BME280;3335;43.198;27.918;2023-02-07T09:49:02;147583.09;;;1.15;100.00
6599;BME280;3335;43.198;27.918;2023-02-07T09:51:33;147565.75;;;1.08;100.00
6599;BME280;3335;43.198;27.918;2023-02-07T09:54:02;147506.25;;;0.83;100.00
6599;BME280;3335;43.198;27.918;2023-02-07T09:56:31;147540.97;;;0.98;100.00
6599;BME280;3335;43.198;27.918;2023-02-07T09:59:02;147533.53;;;0.95;100.00
6599;BME280;3335;43.198;27.918;2023-02-07T10:01:33;147518.66;;;0.88;100.00
6599;BME280;3335;43.198;27.918;2023-02-07T10:04:20;147508.75;;;0.84;100.00
6599;BME280;3335;43.198;27.918;2023-02-07T10:06:54;147474.03;;;0.70;100.00
6599;BME280;3335;43.198;27.918;2023-02-07T10:09:24;147466.56;;;0.67;98.03
6599;BME280;3335;43.198;27.918;2023-02-07T10:11:57;147465.34;;;0.67;97.76
6599;BME280;3335;43.198;27.918;2023-02-07T10:14:43;147493.84;;;0.78;98.79
6599;BME280;3335;43.198;27.918;2023-02-07T10:17:25;147503.75;;;0.82;99.12
6599;BME280;3335;43.198;27.918;2023-02-07T10:20:05;147573.19;;;1.11;98.87
6599;BME280;3335;43.198;27.918;2023-02-07T10:22:45;147640.13;;;1.38;97.08
6599;BME280;3335;43.198;27.918;2023-02-07T10:25:27;147672.41;;;1.51;97.19
6599;BME280;3335;43.198;27.918;2023-02-07T10:28:12;147655.03;;;1.44;95.18
6599;BME280;3335;43.198;27.918;2023-02-07T10:30:47;147585.59;;;1.16;96.94
6599;BME280;3335;43.198;27.918;2023-02-07T10:33:18;147622.78;;;1.31;95.87
6599;BME280;3335;43.198;27.918;2023-02-07T10:35:46;147648.84;;;1.42;97.05
6599;BME280;3335;43.198;27.918;2023-02-07T10:38:22;147689.75;;;1.58;95.02
6599;BME280;3335;43.198;27.918;2023-02-07T10:40:59;147677.34;;;1.53;94.54
6599;BME280;3335;43.198;27.918;2023-02-07T10:43:29;147657.50;;;1.45;95.91
6599;BME280;3335;43.198;27.918;2023-02-07T10:46:01;147776.59;;;1.94;94.87
6599;BME280;3335;43.198;27.918;2023-02-07T10:48:29;147776.59;;;1.94;92.75
6599;BME280;3335;43.198;27.918;2023-02-07T10:50:58;147790.25;;;1.99;92.83
6599;BME280;3335;43.198;27.918;2023-02-07T10:53:43;147709.59;;;1.66;91.24
6599;BME280;3335;43.198;27.918;2023-02-07T10:56:16;147779.09;;;1.95;90.67
6599;BME280;3335;43.198;27.918;2023-02-07T10:58:44;147754.28;;;1.85;93.45
6599;BME280;3335;43.198;27.918;2023-02-07T11:01:19;147657.50;;;1.45;95.84
6599;BME280;3335;43.198;27.918;2023-02-07T11:03:48;147729.47;;;1.74;96.62
6599;BME280;3335;43.198;27.918;2023-02-07T11:06:24;147697.22;;;1.61;94.02
6599;BME280;3335;43.198;27.918;2023-02-07T11:09:09;147759.22;;;1.87;92.55
6599;BME280;3335;43.198;27.918;2023-02-07T11:11:37;147702.16;;;1.63;95.51
6599;BME280;3335;43.198;27.918;2023-02-07T11:14:06;147689.75;;;1.58;95.23
6599;BME280;3335;43.198;27.918;2023-02-07T11:16:34;147595.50;;;1.20;98.17
6599;BME280;3335;43.198;27.918;2023-02-07T11:19:02;147571.94;;;1.10;99.71
6599;BME280;3335;43.198;27.918;2023-02-07T11:21:34;147543.44;;;0.99;100.00
6599;BME280;3335;43.198;27.918;2023-02-07T11:24:04;147513.69;;;0.86;100.00
6599;BME280;3335;43.198;27.918;2023-02-07T11:26:34;147421.97;;;0.49;100.00
6599;BME280;3335;43.198;27.918;2023-02-07T11:29:07;147425.69;;;0.51;100.00
6599;BME280;3335;43.198;27.918;2023-02-07T11:31:38;147382.34;;;0.33;100.00
6599;BME280;3335;43.198;27.918;2023-02-07T11:34:25;147355.06;;;0.22;100.00
6599;BME280;3335;43.198;27.918;2023-02-07T11:36:53;147389.75;;;0.36;100.00
6599;BME280;3335;43.198;27.918;2023-02-07T11:39:22;147374.88;;;0.30;100.00
6599;BME280;3335;43.198;27.918;2023-02-07T11:41:53;147358.81;;;0.23;100.00
6599;BME280;3335;43.198;27.918;2023-02-07T11:44:23;147324.13;;;0.09;100.00
6599;BME280;3335;43.198;27.918;2023-02-07T11:46:50;147305.50;;;0.02;100.00
6599;BME280;3335;43.198;27.918;2023-02-07T11:49:23;147310.50;;;0.04;100.00
6599;BME280;3335;43.198;27.918;2023-02-07T11:51:52;147295.59;;;-0.03;100.00
6599;BME280;3335;43.198;27.918;2023-02-07T11:54:22;147325.31;;;0.10;100.00
6599;BME280;3335;43.198;27.918;2023-02-07T11:56:51;147327.81;;;0.11;100.00
6599;BME280;3335;43.198;27.918;2023-02-07T11:59:21;147298.09;;;-0.02;100.00
6599;BME280;3335;43.198;27.918;2023-02-07T12:01:51;147284.47;;;-0.07;100.00
6599;BME280;3335;43.198;27.918;2023-02-07T12:04:23;147298.09;;;-0.02;100.00
6599;BME280;3335;43.198;27.918;2023-02-07T12:06:55;147290.63;;;-0.05;100.00
6599;BME280;3335;43.198;27.918;2023-02-07T12:09:32;147279.50;;;-0.09;100.00
6599;BME280;3335;43.198;27.918;2023-02-07T12:12:03;147273.31;;;-0.12;100.00
6599;BME280;3335;43.198;27.918;2023-02-07T12:14:34;147255.97;;;-0.19;100.00
6599;BME280;3335;43.198;27.918;2023-02-07T12:17:06;147255.97;;;-0.19;100.00
6599;BME280;3335;43.198;27.918;2023-02-07T12:19:38;147182.94;;;-0.49;100.00
6599;BME280;3335;43.198;27.918;2023-02-07T12:22:13;147259.69;;;-0.17;100.00
6599;BME280;3335;43.198;27.918;2023-02-07T12:24:49;147252.28;;;-0.20;100.00
6599;BME280;3335;43.198;27.918;2023-02-07T12:27:18;147254.75;;;-0.19;100.00
6599;BME280;3335;43.198;27.918;2023-02-07T12:29:55;147241.13;;;-0.25;100.00
6599;BME280;3335;43.198;27.918;2023-02-07T12:32:43;147263.41;;;-0.16;100.00
6599;BME280;3335;43.198;27.918;2023-02-07T12:35:20;147238.66;;;-0.26;100.00
6599;BME280;3335;43.198;27.918;2023-02-07T12:37:54;147201.50;;;-0.41;100.00
6599;BME280;3335;43.198;27.918;2023-02-07T12:40:31;147260.94;;;-0.17;100.00
6599;BME280;3335;43.198;27.918;2023-02-07T12:43:04;147286.94;;;-0.06;100.00
6599;BME280;3335;43.198;27.918;2023-02-07T12:45:52;147243.63;;;-0.24;100.00
6599;BME280;3335;43.198;27.918;2023-02-07T12:48:31;147268.34;;;-0.14;100.00
6599;BME280;3335;43.198;27.918;2023-02-07T12:51:13;147288.19;;;-0.06;100.00
6599;BME280;3335;43.198;27.918;2023-02-07T12:54:10;147289.44;;;-0.05;100.00
6599;BME280;3335;43.198;27.918;2023-02-07T12:56:51;147294.38;;;-0.03;100.00
6599;BME280;3335;43.198;27.918;2023-02-07T12:59:24;147274.56;;;-0.11;100.00
6599;BME280;3335;43.198;27.918;2023-02-07T13:02:02;147280.75;;;-0.09;100.00
6599;BME280;3335;43.198;27.918;2023-02-07T13:04:45;147284.47;;;-0.07;100.00
6599;BME280;3335;43.198;27.918;2023-02-07T13:07:28;147283.22;;;-0.08;100.00
6599;BME280;3335;43.198;27.918;2023-02-07T13:10:05;147281.97;;;-0.08;100.00
6599;BME280;3335;43.198;27.918;2023-02-07T13:12:42;147243.63;;;-0.24;100.00
6599;BME280;3335;43.198;27.918;2023-02-07T13:15:18;147299.34;;;-0.01;100.00
6599;BME280;3335;43.198;27.918;2023-02-07T13:17:52;147186.63;;;-0.47;100.00